Terminal Aerodrome Forecast
Issued by NWS Louisville, KY

Home | Current Version | Previous Version | Text Only | Print | Product List | Glossary On
Versions: 1 2 3 4 5 6 7 8 9 10 11 12 13 14 15 16 17 18
000
FTUS43 KLMK 190520
TAFBWG
TAF
KBWG 190520Z 1906/2006 VRB04KT P6SM BKN200
     FM191100 10004KT P6SM VCSH OVC040
     FM191600 11004KT 5SM -SHRA OVC020
     FM191800 13007KT 3SM -RA BR OVC007
     FM192100 16004KT 2SM RA BR OVC003=

USA.gov is the U.S. government's official web portal to all federal, state and local government web resources and services.